sensor_id;sensor_type;location;lat;lon;timestamp;pressure;altitude;pressure_sealevel;temperature;humidity
33280;BME280;20403;43.114;12.434;2022-10-16T00:01:53;99614.22;;;15.69;100.00
33280;BME280;20403;43.114;12.434;2022-10-16T00:04:18;99621.94;;;15.59;100.00
33280;BME280;20403;43.114;12.434;2022-10-16T00:06:43;99619.25;;;15.53;100.00
33280;BME280;20403;43.114;12.434;2022-10-16T00:09:08;99623.13;;;15.68;100.00
33280;BME280;20403;43.114;12.434;2022-10-16T00:11:35;99623.78;;;15.75;100.00
33280;BME280;20403;43.114;12.434;2022-10-16T00:14:05;99630.31;;;15.55;100.00
33280;BME280;20403;43.114;12.434;2022-10-16T00:16:30;99627.91;;;15.54;100.00
33280;BME280;20403;43.114;12.434;2022-10-16T00:18:56;99632.06;;;15.67;100.00
33280;BME280;20403;43.114;12.434;2022-10-16T00:21:22;99631.09;;;15.56;100.00
33280;BME280;20403;43.114;12.434;2022-10-16T00:23:51;99639.66;;;15.46;100.00
33280;BME280;20403;43.114;12.434;2022-10-16T00:26:17;99635.03;;;15.53;100.00
33280;BME280;20403;43.114;12.434;2022-10-16T00:28:44;99635.81;;;15.71;100.00
33280;BME280;20403;43.114;12.434;2022-10-16T00:31:10;99649.66;;;15.66;100.00
33280;BME280;20403;43.114;12.434;2022-10-16T00:33:37;99643.31;;;15.62;100.00
33280;BME280;20403;43.114;12.434;2022-10-16T00:36:03;99647.50;;;15.63;100.00
33280;BME280;20403;43.114;12.434;2022-10-16T00:38:29;99645.50;;;15.87;100.00
33280;BME280;20403;43.114;12.434;2022-10-16T00:40:54;99650.06;;;15.75;100.00
33280;BME280;20403;43.114;12.434;2022-10-16T00:46:04;99641.28;;;15.69;100.00
33280;BME280;20403;43.114;12.434;2022-10-16T00:48:30;99641.94;;;15.77;100.00
33280;BME280;20403;43.114;12.434;2022-10-16T00:50:56;99650.28;;;15.57;100.00
33280;BME280;20403;43.114;12.434;2022-10-16T00:53:22;99649.28;;;15.74;100.00
33280;BME280;20403;43.114;12.434;2022-10-16T00:55:48;99644.97;;;15.51;100.00
33280;BME280;20403;43.114;12.434;2022-10-16T00:58:14;99656.44;;;15.62;100.00
33280;BME280;20403;43.114;12.434;2022-10-16T01:00:39;99644.28;;;15.39;100.00
33280;BME280;20403;43.114;12.434;2022-10-16T01:05:55;99649.91;;;15.48;100.00
33280;BME280;20403;43.114;12.434;2022-10-16T01:08:33;99647.03;;;15.49;100.00
33280;BME280;20403;43.114;12.434;2022-10-16T01:11:12;99640.81;;;15.39;100.00
33280;BME280;20403;43.114;12.434;2022-10-16T01:13:42;99647.84;;;15.50;100.00
33280;BME280;20403;43.114;12.434;2022-10-16T01:16:13;99644.63;;;15.48;100.00
33280;BME280;20403;43.114;12.434;2022-10-16T01:18:46;99643.06;;;15.30;100.00
33280;BME280;20403;43.114;12.434;2022-10-16T01:21:16;99643.16;;;15.35;100.00
33280;BME280;20403;43.114;12.434;2022-10-16T01:29:09;99639.56;;;15.24;100.00
33280;BME280;20403;43.114;12.434;2022-10-16T01:31:40;99648.16;;;15.20;100.00
33280;BME280;20403;43.114;12.434;2022-10-16T01:34:10;99653.75;;;15.23;100.00
33280;BME280;20403;43.114;12.434;2022-10-16T01:37:02;99646.16;;;15.27;100.00
33280;BME280;20403;43.114;12.434;2022-10-16T01:39:24;99646.16;;;15.10;100.00
33280;BME280;20403;43.114;12.434;2022-10-16T01:42:13;99644.09;;;15.12;100.00
33280;BME280;20403;43.114;12.434;2022-10-16T01:44:40;99639.63;;;15.12;100.00
33280;BME280;20403;43.114;12.434;2022-10-16T01:47:07;99649.91;;;15.14;100.00
33280;BME280;20403;43.114;12.434;2022-10-16T01:49:34;99647.22;;;15.26;100.00
33280;BME280;20403;43.114;12.434;2022-10-16T01:52:03;99644.03;;;15.24;100.00
33280;BME280;20403;43.114;12.434;2022-10-16T01:54:30;99649.13;;;15.13;100.00
33280;BME280;20403;43.114;12.434;2022-10-16T01:56:57;99656.53;;;15.17;100.00
33280;BME280;20403;43.114;12.434;2022-10-16T01:59:24;99650.56;;;15.21;100.00
33280;BME280;20403;43.114;12.434;2022-10-16T02:01:51;99652.94;;;15.23;100.00
33280;BME280;20403;43.114;12.434;2022-10-16T02:04:21;99651.03;;;15.18;100.00
33280;BME280;20403;43.114;12.434;2022-10-16T02:06:48;99660.66;;;15.12;100.00
33280;BME280;20403;43.114;12.434;2022-10-16T02:09:14;99657.22;;;15.12;100.00
33280;BME280;20403;43.114;12.434;2022-10-16T02:11:41;99654.03;;;15.10;100.00
33280;BME280;20403;43.114;12.434;2022-10-16T02:14:07;99647.59;;;15.01;100.00
33280;BME280;20403;43.114;12.434;2022-10-16T02:16:33;99658.88;;;15.01;100.00
33280;BME280;20403;43.114;12.434;2022-10-16T02:18:58;99658.66;;;15.03;100.00
33280;BME280;20403;43.114;12.434;2022-10-16T02:21:28;99654.66;;;15.00;100.00
33280;BME280;20403;43.114;12.434;2022-10-16T02:26:26;99667.09;;;15.05;100.00
33280;BME280;20403;43.114;12.434;2022-10-16T02:28:54;99663.91;;;15.03;100.00
33280;BME280;20403;43.114;12.434;2022-10-16T02:31:23;99664.13;;;15.01;100.00
33280;BME280;20403;43.114;12.434;2022-10-16T02:33:50;99666.34;;;14.92;100.00
33280;BME280;20403;43.114;12.434;2022-10-16T02:36:17;99666.44;;;14.98;100.00
33280;BME280;20403;43.114;12.434;2022-10-16T02:38:43;99666.41;;;14.81;100.00
33280;BME280;20403;43.114;12.434;2022-10-16T02:41:09;99668.88;;;14.87;100.00
33280;BME280;20403;43.114;12.434;2022-10-16T02:43:34;99661.72;;;14.83;100.00
33280;BME280;20403;43.114;12.434;2022-10-16T02:45:59;99663.81;;;14.69;100.00
33280;BME280;20403;43.114;12.434;2022-10-16T02:48:25;99670.38;;;14.55;100.00
33280;BME280;20403;43.114;12.434;2022-10-16T02:50:50;99672.66;;;14.51;100.00
33280;BME280;20403;43.114;12.434;2022-10-16T02:53:16;99671.41;;;14.54;100.00
33280;BME280;20403;43.114;12.434;2022-10-16T02:55:41;99675.97;;;14.46;100.00
33280;BME280;20403;43.114;12.434;2022-10-16T02:58:07;99675.16;;;14.46;100.00
33280;BME280;20403;43.114;12.434;2022-10-16T03:00:32;99672.78;;;14.44;100.00
33280;BME280;20403;43.114;12.434;2022-10-16T03:02:57;99678.19;;;14.26;100.00
33280;BME280;20403;43.114;12.434;2022-10-16T03:05:22;99676.38;;;14.26;100.00
33280;BME280;20403;43.114;12.434;2022-10-16T03:07:48;99679.56;;;14.17;100.00
33280;BME280;20403;43.114;12.434;2022-10-16T03:10:13;99687.53;;;14.22;100.00
33280;BME280;20403;43.114;12.434;2022-10-16T03:12:38;99690.50;;;14.14;100.00
33280;BME280;20403;43.114;12.434;2022-10-16T03:15:04;99693.81;;;14.09;100.00
33280;BME280;20403;43.114;12.434;2022-10-16T03:17:29;99687.09;;;14.01;100.00
33280;BME280;20403;43.114;12.434;2022-10-16T03:19:54;99685.50;;;14.12;100.00
33280;BME280;20403;43.114;12.434;2022-10-16T03:22:20;99689.63;;;14.08;100.00
33280;BME280;20403;43.114;12.434;2022-10-16T03:24:45;99690.78;;;14.00;100.00
33280;BME280;20403;43.114;12.434;2022-10-16T03:27:10;99686.91;;;13.91;100.00
33280;BME280;20403;43.114;12.434;2022-10-16T03:29:36;99688.03;;;13.83;100.00
33280;BME280;20403;43.114;12.434;2022-10-16T03:32:01;99691.00;;;13.87;100.00
33280;BME280;20403;43.114;12.434;2022-10-16T03:34:27;99694.31;;;13.82;100.00
33280;BME280;20403;43.114;12.434;2022-10-16T03:36:53;99698.75;;;13.82;100.00
33280;BME280;20403;43.114;12.434;2022-10-16T03:39:18;99701.13;;;13.72;100.00
33280;BME280;20403;43.114;12.434;2022-10-16T03:41:44;99696.00;;;13.77;100.00
33280;BME280;20403;43.114;12.434;2022-10-16T03:44:09;99696.69;;;13.84;100.00
33280;BME280;20403;43.114;12.434;2022-10-16T03:46:34;99685.66;;;13.82;100.00
33280;BME280;20403;43.114;12.434;2022-10-16T03:49:00;99697.72;;;13.83;100.00
33280;BME280;20403;43.114;12.434;2022-10-16T03:51:25;99690.84;;;13.70;100.00
33280;BME280;20403;43.114;12.434;2022-10-16T03:53:50;99698.72;;;13.70;100.00
33280;BME280;20403;43.114;12.434;2022-10-16T03:56:16;99696.34;;;13.69;100.00
33280;BME280;20403;43.114;12.434;2022-10-16T03:58:41;99698.03;;;13.63;100.00
33280;BME280;20403;43.114;12.434;2022-10-16T04:01:06;99699.63;;;13.52;100.00
33280;BME280;20403;43.114;12.434;2022-10-16T04:03:32;99705.56;;;13.48;100.00
33280;BME280;20403;43.114;12.434;2022-10-16T04:05:57;99708.38;;;13.46;100.00
33280;BME280;20403;43.114;12.434;2022-10-16T04:08:23;99710.53;;;13.37;100.00
33280;BME280;20403;43.114;12.434;2022-10-16T04:10:48;99710.41;;;13.32;100.00
33280;BME280;20403;43.114;12.434;2022-10-16T04:13:13;99710.41;;;13.32;100.00
33280;BME280;20403;43.114;12.434;2022-10-16T04:15:38;99707.78;;;13.32;100.00
33280;BME280;20403;43.114;12.434;2022-10-16T04:18:04;99708.47;;;13.28;100.00
33280;BME280;20403;43.114;12.434;2022-10-16T04:20:29;99714.22;;;13.18;100.00
33280;BME280;20403;43.114;12.434;2022-10-16T04:22:55;99706.28;;;13.24;100.00
33280;BME280;20403;43.114;12.434;2022-10-16T04:25:21;99709.31;;;13.21;100.00
33280;BME280;20403;43.114;12.434;2022-10-16T04:27:46;99708.00;;;13.31;100.00
33280;BME280;20403;43.114;12.434;2022-10-16T04:30:11;99713.25;;;13.31;100.00
33280;BME280;20403;43.114;12.434;2022-10-16T04:32:37;99713.19;;;13.19;100.00
33280;BME280;20403;43.114;12.434;2022-10-16T04:35:02;99713.72;;;13.09;100.00
33280;BME280;20403;43.114;12.434;2022-10-16T04:37:28;99717.00;;;13.04;100.00
33280;BME280;20403;43.114;12.434;2022-10-16T04:39:53;99710.53;;;13.07;100.00
33280;BME280;20403;43.114;12.434;2022-10-16T04:42:19;99719.13;;;12.96;100.00
33280;BME280;20403;43.114;12.434;2022-10-16T04:44:44;99722.00;;;12.94;100.00
33280;BME280;20403;43.114;12.434;2022-10-16T04:47:10;99719.38;;;12.94;100.00
33280;BME280;20403;43.114;12.434;2022-10-16T04:49:35;99721.75;;;12.96;100.00
33280;BME280;20403;43.114;12.434;2022-10-16T04:52:00;99725.13;;;12.85;100.00
33280;BME280;20403;43.114;12.434;2022-10-16T04:54:26;99715.38;;;12.92;100.00
33280;BME280;20403;43.114;12.434;2022-10-16T04:56:51;99715.50;;;12.97;100.00
33280;BME280;20403;43.114;12.434;2022-10-16T04:59:17;99719.97;;;12.96;100.00
33280;BME280;20403;43.114;12.434;2022-10-16T05:01:43;99720.16;;;12.95;100.00
33280;BME280;20403;43.114;12.434;2022-10-16T05:04:08;99721.84;;;12.89;100.00
33280;BME280;20403;43.114;12.434;2022-10-16T05:06:33;99719.59;;;12.93;100.00
33280;BME280;20403;43.114;12.434;2022-10-16T05:08:59;99724.25;;;12.91;100.00
33280;BME280;20403;43.114;12.434;2022-10-16T05:11:24;99723.75;;;12.82;100.00
33280;BME280;20403;43.114;12.434;2022-10-16T05:13:49;99721.16;;;12.64;100.00
33280;BME280;20403;43.114;12.434;2022-10-16T05:16:15;99723.13;;;12.50;100.00
33280;BME280;20403;43.114;12.434;2022-10-16T05:18:40;99724.59;;;12.46;100.00
33280;BME280;20403;43.114;12.434;2022-10-16T05:21:05;99726.97;;;12.47;100.00
33280;BME280;20403;43.114;12.434;2022-10-16T05:23:31;99716.88;;;12.51;100.00
33280;BME280;20403;43.114;12.434;2022-10-16T05:25:56;99727.56;;;12.49;100.00
33280;BME280;20403;43.114;12.434;2022-10-16T05:28:23;99724.16;;;12.49;100.00
33280;BME280;20403;43.114;12.434;2022-10-16T05:30:48;99728.00;;;12.46;100.00
33280;BME280;20403;43.114;12.434;2022-10-16T05:33:14;99729.88;;;12.39;100.00
33280;BME280;20403;43.114;12.434;2022-10-16T05:35:39;99732.56;;;12.51;100.00
33280;BME280;20403;43.114;12.434;2022-10-16T05:38:04;99737.94;;;12.56;100.00
33280;BME280;20403;43.114;12.434;2022-10-16T05:40:29;99742.38;;;12.55;100.00
33280;BME280;20403;43.114;12.434;2022-10-16T05:42:55;99740.13;;;12.59;100.00
33280;BME280;20403;43.114;12.434;2022-10-16T05:45:20;99736.72;;;12.58;100.00
33280;BME280;20403;43.114;12.434;2022-10-16T05:47:46;99739.38;;;12.52;100.00
33280;BME280;20403;43.114;12.434;2022-10-16T05:50:11;99739.19;;;12.53;100.00
33280;BME280;20403;43.114;12.434;2022-10-16T05:52:36;99750.38;;;12.60;100.00
33280;BME280;20403;43.114;12.434;2022-10-16T05:55:02;99745.94;;;12.61;100.00
33280;BME280;20403;43.114;12.434;2022-10-16T05:57:27;99749.56;;;12.60;100.00
33280;BME280;20403;43.114;12.434;2022-10-16T05:59:52;99755.47;;;12.55;100.00
33280;BME280;20403;43.114;12.434;2022-10-16T06:02:18;99753.06;;;12.54;100.00
33280;BME280;20403;43.114;12.434;2022-10-16T06:04:43;99752.84;;;12.74;100.00
33280;BME280;20403;43.114;12.434;2022-10-16T06:07:08;99750.47;;;13.02;100.00
33280;BME280;20403;43.114;12.434;2022-10-16T06:09:33;99761.38;;;12.99;100.00
33280;BME280;20403;43.114;12.434;2022-10-16T06:11:59;99756.69;;;12.90;100.00
33280;BME280;20403;43.114;12.434;2022-10-16T06:14:24;99756.81;;;12.95;100.00
33280;BME280;20403;43.114;12.434;2022-10-16T06:16:49;99761.25;;;12.94;100.00
33280;BME280;20403;43.114;12.434;2022-10-16T06:19:15;99764.19;;;13.16;100.00
33280;BME280;20403;43.114;12.434;2022-10-16T06:21:41;99768.03;;;13.14;100.00
33280;BME280;20403;43.114;12.434;2022-10-16T06:24:06;99770.78;;;13.19;100.00
33280;BME280;20403;43.114;12.434;2022-10-16T06:26:32;99774.72;;;13.28;100.00
33280;BME280;20403;43.114;12.434;2022-10-16T06:28:58;99777.97;;;13.23;100.00
33280;BME280;20403;43.114;12.434;2022-10-16T06:31:23;99782.06;;;13.38;100.00
33280;BME280;20403;43.114;12.434;2022-10-16T06:33:52;99783.72;;;13.62;100.00
33280;BME280;20403;43.114;12.434;2022-10-16T06:36:18;99781.13;;;13.74;100.00
33280;BME280;20403;43.114;12.434;2022-10-16T06:38:44;99786.28;;;13.81;100.00
33280;BME280;20403;43.114;12.434;2022-10-16T06:41:11;99790.13;;;13.78;100.00
33280;BME280;20403;43.114;12.434;2022-10-16T06:43:36;99796.06;;;13.85;100.00
33280;BME280;20403;43.114;12.434;2022-10-16T06:46:02;99793.00;;;13.88;100.00
33280;BME280;20403;43.114;12.434;2022-10-16T06:48:28;99797.22;;;13.90;100.00
33280;BME280;20403;43.114;12.434;2022-10-16T06:51:00;99795.88;;;13.87;100.00
33280;BME280;20403;43.114;12.434;2022-10-16T06:53:27;99806.34;;;13.87;100.00
33280;BME280;20403;43.114;12.434;2022-10-16T06:55:52;99806.06;;;14.31;100.00
33280;BME280;20403;43.114;12.434;2022-10-16T06:58:18;99807.19;;;14.46;100.00
33280;BME280;20403;43.114;12.434;2022-10-16T07:00:43;99804.59;;;14.58;100.00
33280;BME280;20403;43.114;12.434;2022-10-16T07:03:08;99806.72;;;14.73;100.00
33280;BME280;20403;43.114;12.434;2022-10-16T07:05:40;99801.78;;;14.88;100.00
33280;BME280;20403;43.114;12.434;2022-10-16T07:08:06;99809.63;;;15.00;100.00
33280;BME280;20403;43.114;12.434;2022-10-16T07:10:32;99812.09;;;15.19;100.00
33280;BME280;20403;43.114;12.434;2022-10-16T07:12:57;99804.72;;;15.32;100.00
33280;BME280;20403;43.114;12.434;2022-10-16T07:15:23;99805.84;;;15.37;100.00
33280;BME280;20403;43.114;12.434;2022-10-16T07:17:49;99816.31;;;15.48;100.00
33280;BME280;20403;43.114;12.434;2022-10-16T07:20:15;99809.94;;;15.61;100.00
33280;BME280;20403;43.114;12.434;2022-10-16T07:22:40;99818.63;;;15.73;100.00
33280;BME280;20403;43.114;12.434;2022-10-16T07:25:05;99820.91;;;15.87;100.00
33280;BME280;20403;43.114;12.434;2022-10-16T07:27:31;99817.09;;;15.94;100.00
33280;BME280;20403;43.114;12.434;2022-10-16T07:29:56;99826.50;;;16.07;100.00
33280;BME280;20403;43.114;12.434;2022-10-16T07:32:21;99818.41;;;16.31;100.00
33280;BME280;20403;43.114;12.434;2022-10-16T07:34:46;99822.34;;;16.45;100.00
33280;BME280;20403;43.114;12.434;2022-10-16T07:37:12;99829.31;;;16.56;100.00
33280;BME280;20403;43.114;12.434;2022-10-16T07:39:37;99826.66;;;16.73;100.00
33280;BME280;20403;43.114;12.434;2022-10-16T07:42:02;99837.38;;;16.89;100.00
33280;BME280;20403;43.114;12.434;2022-10-16T07:44:27;99825.88;;;16.95;100.00
33280;BME280;20403;43.114;12.434;2022-10-16T07:46:53;99828.44;;;17.12;100.00
33280;BME280;20403;43.114;12.434;2022-10-16T07:49:18;99831.69;;;17.19;100.00
33280;BME280;20403;43.114;12.434;2022-10-16T07:51:43;99832.09;;;17.33;100.00
33280;BME280;20403;43.114;12.434;2022-10-16T07:54:09;99830.28;;;17.33;100.00
33280;BME280;20403;43.114;12.434;2022-10-16T07:56:34;99837.50;;;17.21;100.00
33280;BME280;20403;43.114;12.434;2022-10-16T07:58:59;99841.91;;;17.37;100.00
33280;BME280;20403;43.114;12.434;2022-10-16T08:01:25;99847.38;;;17.58;100.00
33280;BME280;20403;43.114;12.434;2022-10-16T08:03:50;99840.28;;;17.85;100.00
33280;BME280;20403;43.114;12.434;2022-10-16T08:06:16;99841.66;;;18.25;100.00
33280;BME280;20403;43.114;12.434;2022-10-16T08:08:42;99836.00;;;18.54;100.00
33280;BME280;20403;43.114;12.434;2022-10-16T08:11:07;99836.88;;;18.70;100.00
33280;BME280;20403;43.114;12.434;2022-10-16T08:13:33;99840.69;;;18.95;100.00
33280;BME280;20403;43.114;12.434;2022-10-16T08:15:58;99835.50;;;19.15;100.00
33280;BME280;20403;43.114;12.434;2022-10-16T08:18:24;99841.59;;;19.21;100.00
33280;BME280;20403;43.114;12.434;2022-10-16T08:20:54;99840.00;;;19.15;100.00
33280;BME280;20403;43.114;12.434;2022-10-16T08:23:20;99844.00;;;19.27;100.00
33280;BME280;20403;43.114;12.434;2022-10-16T08:25:45;99845.88;;;19.47;100.00
33280;BME280;20403;43.114;12.434;2022-10-16T08:28:10;99855.16;;;19.50;100.00
33280;BME280;20403;43.114;12.434;2022-10-16T08:30:36;99850.91;;;19.44;100.00
33280;BME280;20403;43.114;12.434;2022-10-16T08:33:02;99850.13;;;19.53;100.00
33280;BME280;20403;43.114;12.434;2022-10-16T08:35:27;99852.59;;;19.76;100.00
33280;BME280;20403;43.114;12.434;2022-10-16T08:37:52;99849.41;;;19.84;100.00
33280;BME280;20403;43.114;12.434;2022-10-16T08:40:23;99852.31;;;19.72;100.00
33280;BME280;20403;43.114;12.434;2022-10-16T08:47:45;99842.22;;;20.30;100.00
33280;BME280;20403;43.114;12.434;2022-10-16T08:50:14;99852.84;;;20.05;100.00
33280;BME280;20403;43.114;12.434;2022-10-16T08:52:43;99854.41;;;20.26;100.00
33280;BME280;20403;43.114;12.434;2022-10-16T08:55:23;99844.56;;;20.63;100.00
33280;BME280;20403;43.114;12.434;2022-10-16T08:57:53;99842.31;;;20.95;100.00
33280;BME280;20403;43.114;12.434;2022-10-16T09:00:18;99846.22;;;21.13;100.00
33280;BME280;20403;43.114;12.434;2022-10-16T09:11:01;99848.81;;;21.29;100.00
33280;BME280;20403;43.114;12.434;2022-10-16T09:13:21;99854.16;;;21.18;100.00
33280;BME280;20403;43.114;12.434;2022-10-16T09:15:53;99859.25;;;21.10;100.00
33280;BME280;20403;43.114;12.434;2022-10-16T09:23:25;99860.06;;;21.05;100.00
33280;BME280;20403;43.114;12.434;2022-10-16T09:25:51;99860.75;;;21.26;100.00
33280;BME280;20403;43.114;12.434;2022-10-16T09:28:17;99861.69;;;21.51;100.00
33280;BME280;20403;43.114;12.434;2022-10-16T09:30:43;99867.91;;;21.75;100.00
33280;BME280;20403;43.114;12.434;2022-10-16T09:33:10;99862.13;;;22.02;100.00
33280;BME280;20403;43.114;12.434;2022-10-16T09:35:39;99859.50;;;22.32;100.00
33280;BME280;20403;43.114;12.434;2022-10-16T09:38:05;99854.22;;;22.56;100.00
33280;BME280;20403;43.114;12.434;2022-10-16T09:40:34;99861.16;;;22.22;100.00
33280;BME280;20403;43.114;12.434;2022-10-16T09:45:28;99858.91;;;22.64;100.00
33280;BME280;20403;43.114;12.434;2022-10-16T09:47:54;99854.69;;;22.34;100.00
33280;BME280;20403;43.114;12.434;2022-10-16T09:50:27;99853.78;;;22.43;100.00
33280;BME280;20403;43.114;12.434;2022-10-16T09:55:48;99854.63;;;22.87;100.00
33280;BME280;20403;43.114;12.434;2022-10-16T09:58:14;99856.13;;;22.74;100.00
33280;BME280;20403;43.114;12.434;2022-10-16T10:00:39;99844.41;;;22.75;100.00
33280;BME280;20403;43.114;12.434;2022-10-16T10:03:09;99845.59;;;22.88;100.00
33280;BME280;20403;43.114;12.434;2022-10-16T10:05:35;99843.09;;;22.97;100.00
33280;BME280;20403;43.114;12.434;2022-10-16T10:08:01;99844.66;;;23.22;100.00
33280;BME280;20403;43.114;12.434;2022-10-16T10:10:32;99842.81;;;23.22;100.00
33280;BME280;20403;43.114;12.434;2022-10-16T10:12:57;99843.56;;;23.42;100.00
33280;BME280;20403;43.114;12.434;2022-10-16T10:15:23;99847.47;;;23.31;100.00
33280;BME280;20403;43.114;12.434;2022-10-16T10:17:50;99847.97;;;23.33;100.00
33280;BME280;20403;43.114;12.434;2022-10-16T10:22:47;99843.09;;;23.78;100.00
33280;BME280;20403;43.114;12.434;2022-10-16T10:30:18;99844.19;;;23.90;100.00
33280;BME280;20403;43.114;12.434;2022-10-16T10:35:28;99836.50;;;24.03;100.00
33280;BME280;20403;43.114;12.434;2022-10-16T10:38:07;99839.03;;;24.13;100.00
33280;BME280;20403;43.114;12.434;2022-10-16T10:43:25;99834.00;;;24.25;100.00
33280;BME280;20403;43.114;12.434;2022-10-16T10:45:53;99832.44;;;24.38;100.00
33280;BME280;20403;43.114;12.434;2022-10-16T10:51:04;99824.53;;;24.88;100.00
33280;BME280;20403;43.114;12.434;2022-10-16T10:56:45;99823.97;;;24.78;100.00
33280;BME280;20403;43.114;12.434;2022-10-16T11:06:34;99814.31;;;24.68;100.00
33280;BME280;20403;43.114;12.434;2022-10-16T11:11:35;99809.72;;;24.82;100.00
33280;BME280;20403;43.114;12.434;2022-10-16T11:16:48;99801.59;;;25.38;100.00
33280;BME280;20403;43.114;12.434;2022-10-16T11:21:45;99807.31;;;25.45;100.00
33280;BME280;20403;43.114;12.434;2022-10-16T11:26:39;99810.56;;;25.42;100.00
33280;BME280;20403;43.114;12.434;2022-10-16T11:29:08;99803.38;;;25.42;100.00
33280;BME280;20403;43.114;12.434;2022-10-16T11:31:40;99803.78;;;25.58;100.00
33280;BME280;20403;43.114;12.434;2022-10-16T11:36:43;99797.88;;;25.92;100.00
33280;BME280;20403;43.114;12.434;2022-10-16T11:39:22;99798.59;;;26.15;100.00
33280;BME280;20403;43.114;12.434;2022-10-16T11:44:25;99799.31;;;25.76;100.00
33280;BME280;20403;43.114;12.434;2022-10-16T11:47:02;99793.06;;;25.81;100.00
33280;BME280;20403;43.114;12.434;2022-10-16T11:49:30;99795.88;;;25.75;100.00
33280;BME280;20403;43.114;12.434;2022-10-16T11:56:57;99795.44;;;25.37;100.00
33280;BME280;20403;43.114;12.434;2022-10-16T12:04:34;99777.00;;;25.72;100.00
33280;BME280;20403;43.114;12.434;2022-10-16T12:07:06;99776.59;;;26.10;100.00
33280;BME280;20403;43.114;12.434;2022-10-16T12:09:34;99771.44;;;26.22;100.00
33280;BME280;20403;43.114;12.434;2022-10-16T12:12:01;99776.38;;;26.37;100.00
33280;BME280;20403;43.114;12.434;2022-10-16T12:19:17;99780.13;;;26.28;87.82
33280;BME280;20403;43.114;12.434;2022-10-16T12:21:43;99778.53;;;26.18;91.24
33280;BME280;20403;43.114;12.434;2022-10-16T12:26:47;99777.44;;;26.28;84.57
33280;BME280;20403;43.114;12.434;2022-10-16T12:31:42;99778.16;;;26.51;84.10
33280;BME280;20403;43.114;12.434;2022-10-16T12:36:52;99770.91;;;26.51;73.07
33280;BME280;20403;43.114;12.434;2022-10-16T12:39:22;99773.63;;;26.60;73.71
33280;BME280;20403;43.114;12.434;2022-10-16T12:41:48;99772.38;;;26.66;87.26
33280;BME280;20403;43.114;12.434;2022-10-16T12:44:25;99775.50;;;26.59;88.50
33280;BME280;20403;43.114;12.434;2022-10-16T12:46:53;99777.72;;;26.75;78.24
33280;BME280;20403;43.114;12.434;2022-10-16T12:49:22;99775.38;;;26.65;72.59
33280;BME280;20403;43.114;12.434;2022-10-16T12:51:49;99774.56;;;26.64;66.17
33280;BME280;20403;43.114;12.434;2022-10-16T13:00:12;99773.16;;;26.67;61.50
33280;BME280;20403;43.114;12.434;2022-10-16T13:02:14;99778.81;;;26.56;84.04
33280;BME280;20403;43.114;12.434;2022-10-16T13:04:45;99772.22;;;26.63;87.18
33280;BME280;20403;43.114;12.434;2022-10-16T13:09:48;99773.66;;;26.29;85.68
33280;BME280;20403;43.114;12.434;2022-10-16T13:15:09;99771.38;;;26.53;71.36
33280;BME280;20403;43.114;12.434;2022-10-16T13:20:28;99767.97;;;26.79;80.47
33280;BME280;20403;43.114;12.434;2022-10-16T13:28:06;99768.56;;;26.10;90.46
33280;BME280;20403;43.114;12.434;2022-10-16T13:30:40;99778.09;;;25.71;100.00
33280;BME280;20403;43.114;12.434;2022-10-16T13:35:35;99783.28;;;24.58;100.00
33280;BME280;20403;43.114;12.434;2022-10-16T13:38:17;99786.91;;;24.21;100.00
33280;BME280;20403;43.114;12.434;2022-10-16T13:40:50;99788.59;;;24.30;100.00
33280;BME280;20403;43.114;12.434;2022-10-16T13:43:17;99779.50;;;24.45;100.00
33280;BME280;20403;43.114;12.434;2022-10-16T13:45:52;99783.09;;;24.55;100.00
33280;BME280;20403;43.114;12.434;2022-10-16T13:48:17;99781.81;;;24.52;100.00
33280;BME280;20403;43.114;12.434;2022-10-16T13:50:42;99782.56;;;24.39;100.00
33280;BME280;20403;43.114;12.434;2022-10-16T13:53:17;99786.63;;;24.36;100.00
33280;BME280;20403;43.114;12.434;2022-10-16T13:55:42;99780.97;;;24.24;100.00
33280;BME280;20403;43.114;12.434;2022-10-16T13:58:08;99787.38;;;24.09;100.00
33280;BME280;20403;43.114;12.434;2022-10-16T14:00:36;99785.69;;;23.85;100.00
33280;BME280;20403;43.114;12.434;2022-10-16T14:03:03;99783.03;;;23.66;100.00
33280;BME280;20403;43.114;12.434;2022-10-16T14:05:29;99790.50;;;23.32;100.00
33280;BME280;20403;43.114;12.434;2022-10-16T14:07:54;99791.66;;;23.06;100.00
33280;BME280;20403;43.114;12.434;2022-10-16T14:10:22;99782.81;;;22.68;100.00
33280;BME280;20403;43.114;12.434;2022-10-16T14:12:55;99791.78;;;22.53;100.00
33280;BME280;20403;43.114;12.434;2022-10-16T14:15:21;99793.91;;;22.27;100.00
33280;BME280;20403;43.114;12.434;2022-10-16T14:17:47;99796.00;;;22.01;100.00
33280;BME280;20403;43.114;12.434;2022-10-16T14:20:14;99792.69;;;21.85;100.00
33280;BME280;20403;43.114;12.434;2022-10-16T14:22:41;99793.31;;;21.72;100.00
33280;BME280;20403;43.114;12.434;2022-10-16T14:30:26;99795.44;;;21.35;100.00
33280;BME280;20403;43.114;12.434;2022-10-16T14:37:51;99801.09;;;21.24;100.00
33280;BME280;20403;43.114;12.434;2022-10-16T14:40:16;99797.41;;;21.19;100.00
33280;BME280;20403;43.114;12.434;2022-10-16T14:42:42;99796.91;;;21.12;100.00
33280;BME280;20403;43.114;12.434;2022-10-16T14:45:09;99802.22;;;21.07;100.00
33280;BME280;20403;43.114;12.434;2022-10-16T14:47:35;99800.09;;;21.09;100.00
33280;BME280;20403;43.114;12.434;2022-10-16T14:50:02;99797.50;;;20.99;100.00
33280;BME280;20403;43.114;12.434;2022-10-16T14:52:27;99798.06;;;20.96;100.00